Time;durP1;ratioP1;P1;durP2;ratioP2;P2;SDS_P1;SDS_P2;PMS_P1;PMS_P2;Temp;Humidity;BMP_temperature;BMP_pressure;BME280_temperature;BME280_humidity;BME280_pressure;Samples;Min_cycle;Max_cycle;Signal;HPM_P1;HPM_P2
2021/07/04 00:02:09;;;;;;;0.88;0.88;;;25.00;49.50;;;28.75;33.34;100996.78;5113734;28;20138;-52
2021/07/04 00:04:35;;;;;;;0.80;0.80;;;25.00;49.50;;;28.75;33.61;100998.63;5113449;28;20128;-52
2021/07/04 00:07:03;;;;;;;1.00;0.90;;;25.00;49.50;;;28.71;33.56;100989.16;5095168;28;20048;-54
2021/07/04 00:09:28;;;;;;;1.00;1.00;;;25.00;49.50;;;28.73;33.76;100993.38;5113155;28;20052;-54
2021/07/04 00:11:54;;;;;;;0.77;0.77;;;25.00;49.50;;;28.71;33.52;100983.75;5095099;28;20046;-53
2021/07/04 00:14:20;;;;;;;0.77;0.77;;;25.00;49.50;;;28.71;33.72;100998.06;5113264;28;20059;-53
2021/07/04 00:16:46;;;;;;;0.85;0.85;;;25.00;49.60;;;28.71;33.83;100992.69;5111925;28;20168;-52
2021/07/04 00:19:12;;;;;;;1.23;0.80;;;25.00;49.60;;;28.68;33.64;100992.94;5113652;28;20141;-54
2021/07/04 00:21:38;;;;;;;0.60;0.60;;;25.00;49.60;;;28.68;33.74;101001.03;5113286;28;20047;-52
2021/07/04 00:24:05;;;;;;;0.80;0.80;;;24.90;49.60;;;28.67;33.68;100991.28;5113276;28;20058;-51
2021/07/04 00:26:30;;;;;;;0.70;0.70;;;24.90;49.60;;;28.67;33.77;100998.47;5113477;28;20110;-54
2021/07/04 00:28:56;;;;;;;0.70;0.70;;;24.90;49.60;;;28.65;33.54;100993.25;5113077;28;20491;-53
2021/07/04 00:31:22;;;;;;;0.77;0.77;;;24.90;49.60;;;28.64;33.74;100989.72;5113144;28;20047;-54
2021/07/04 00:33:48;;;;;;;0.70;0.70;;;24.90;49.60;;;28.64;33.63;100988.88;5113582;28;20487;-50
2021/07/04 00:36:14;;;;;;;0.80;0.80;;;24.90;49.60;;;28.61;33.66;100979.22;5112483;28;20051;-53
2021/07/04 00:38:40;;;;;;;0.80;0.80;;;24.90;49.70;;;28.63;33.74;100979.97;5113014;28;20495;-49
2021/07/04 00:41:06;;;;;;;0.70;0.70;;;24.90;49.70;;;28.63;33.94;100984.47;5111122;28;20105;-47
2021/07/04 00:43:32;;;;;;;0.70;0.70;;;24.90;49.70;;;28.58;33.75;100979.50;5113032;28;20402;-55
2021/07/04 00:45:58;;;;;;;0.70;0.70;;;24.90;49.70;;;28.56;33.79;100978.81;5109920;28;20054;-55
2021/07/04 00:48:25;;;;;;;0.70;0.70;;;24.90;49.70;;;28.60;33.58;100979.38;5112574;28;20051;-54
2021/07/04 00:50:50;;;;;;;0.80;0.80;;;24.90;49.80;;;28.58;34.00;100974.13;5112824;28;20035;-52
2021/07/04 00:53:22;;;;;;;0.80;0.80;;;24.80;49.70;;;28.55;33.87;100969.03;5111408;28;20563;-49
2021/07/04 00:55:48;;;;;;;0.88;0.88;;;24.80;49.70;;;28.55;33.68;100971.72;5112825;28;20043;-50
2021/07/04 00:58:15;;;;;;;0.80;0.80;;;24.80;49.70;;;28.56;34.01;100970.75;5111411;28;20051;-50
2021/07/04 01:00:42;;;;;;;0.90;0.90;;;24.90;49.80;;;28.55;33.92;100979.78;5094409;28;20048;-53
2021/07/04 01:03:09;;;;;;;0.82;0.82;;;24.80;49.80;;;28.54;33.86;100970.00;5112589;28;20049;-54
2021/07/04 01:05:45;;;;;;;0.77;0.77;;;24.80;49.80;;;28.53;33.66;100968.28;5090816;28;20040;-52
2021/07/04 01:08:14;;;;;;;0.70;0.70;;;24.80;49.80;;;28.54;33.81;100966.47;5094842;28;20048;-53
2021/07/04 01:10:41;;;;;;;0.77;0.77;;;24.80;49.80;;;28.53;34.11;100970.16;5078128;28;20088;-52
2021/07/04 01:13:12;;;;;;;0.80;0.80;;;24.80;49.80;;;28.51;33.82;100964.91;5112288;28;20051;-54
2021/07/04 01:15:41;;;;;;;0.90;0.90;;;24.80;49.90;;;28.52;34.11;100963.06;5077813;28;20070;-52
2021/07/04 01:18:10;;;;;;;0.77;0.77;;;24.80;49.80;;;28.50;34.04;100963.22;5077679;28;20051;-52
2021/07/04 01:20:42;;;;;;;0.70;0.70;;;24.80;49.90;;;28.49;34.11;100966.06;5112760;28;20129;-51
2021/07/04 01:23:12;;;;;;;0.80;0.80;;;24.80;49.90;;;28.45;34.03;100966.34;5077369;28;20056;-52
2021/07/04 01:25:47;;;;;;;0.85;0.85;;;24.80;49.90;;;28.45;34.16;100965.47;5112457;28;20052;-52
2021/07/04 01:28:14;;;;;;;0.70;0.70;;;24.80;49.90;;;28.44;34.04;100961.09;5112481;28;20066;-53
2021/07/04 01:30:52;;;;;;;0.85;0.85;;;24.70;49.90;;;28.43;34.10;100968.31;5094565;28;20047;-54
2021/07/04 01:33:20;;;;;;;0.70;0.70;;;24.80;50.00;;;28.39;33.78;100961.50;5110957;28;20048;-52
2021/07/04 01:35:46;;;;;;;0.65;0.65;;;24.80;50.00;;;28.45;33.98;100968.16;5093994;28;20039;-52
2021/07/04 01:38:11;;;;;;;0.75;0.75;;;24.80;50.00;;;28.42;33.93;100958.53;5093971;28;20047;-53
2021/07/04 01:40:38;;;;;;;0.70;0.70;;;24.80;50.00;;;28.39;34.14;100953.44;5112287;28;20094;-50
2021/07/04 01:43:04;;;;;;;0.80;0.80;;;24.80;50.00;;;28.40;33.90;100955.16;5112845;28;20047;-50
2021/07/04 01:45:36;;;;;;;1.02;0.85;;;24.70;49.90;;;28.39;34.22;100950.75;5110678;28;20071;-49
2021/07/04 01:48:03;;;;;;;0.80;0.80;;;24.70;49.90;;;28.39;34.13;100945.38;5112649;28;20475;-48
2021/07/04 01:50:35;;;;;;;0.65;0.63;;;24.70;50.00;;;28.38;34.22;100940.13;5115952;28;20096;-54
2021/07/04 01:53:02;;;;;;;;;;;24.70;50.00;;;28.48;33.78;100943.66;5097843;28;20100;-47
2021/07/04 01:55:31;;;;;;;0.80;0.80;;;24.70;50.10;;;28.44;33.99;100944.97;5113938;28;20368;-52
2021/07/04 01:57:57;;;;;;;0.80;0.80;;;24.70;50.00;;;28.38;34.07;100938.28;5115539;28;20055;-53
2021/07/04 02:00:32;;;;;;;0.70;0.70;;;24.70;50.10;;;28.36;34.24;100936.75;5114078;28;20058;-54
2021/07/04 02:03:10;;;;;;;0.80;0.80;;;24.70;50.00;;;28.35;33.94;100937.72;5116067;28;20047;-53
2021/07/04 02:05:43;;;;;;;0.80;0.80;;;24.70;50.10;;;28.34;34.24;100938.75;5097732;28;20075;-52
2021/07/04 02:08:12;;;;;;;0.77;0.77;;;24.70;50.10;;;28.35;34.28;100943.09;5114014;28;20438;-50
2021/07/04 02:10:44;;;;;;;0.80;0.80;;;24.70;50.10;;;28.28;34.20;100930.25;5113426;28;20044;-54
2021/07/04 02:13:12;;;;;;;0.80;0.80;;;24.70;50.20;;;28.32;34.27;100940.69;5115503;28;20048;-53
2021/07/04 02:15:42;;;;;;;0.85;0.85;;;24.70;50.20;;;28.32;34.06;100944.25;5115430;28;20402;-49
2021/07/04 02:18:16;;;;;;;0.70;0.70;;;24.60;50.20;;;28.28;34.04;100937.44;5114315;28;20047;-51
2021/07/04 02:21:05;;;;;;;0.85;0.85;;;24.60;50.20;;;28.31;34.16;100937.16;5100209;28;20487;-48
2021/07/04 02:23:36;;;;;;;0.90;0.90;;;24.70;50.20;;;28.27;34.10;100933.06;5113746;28;20058;-48
2021/07/04 02:26:25;;;;;;;0.60;0.60;;;24.70;50.20;;;28.26;34.31;100939.44;5052359;28;20052;-52
2021/07/04 02:28:56;;;;;;;0.70;0.70;;;24.60;50.20;;;28.26;34.40;100934.06;5091089;28;20116;-53
2021/07/04 02:31:29;;;;;;;0.80;0.80;;;24.60;50.20;;;28.27;34.13;100938.47;5113774;28;20459;-48
2021/07/04 02:33:56;;;;;;;0.90;0.80;;;24.60;50.20;;;28.25;34.22;100943.97;5096926;28;20135;-49
2021/07/04 02:36:23;;;;;;;0.80;0.80;;;24.60;50.30;;;28.24;34.31;100942.25;5115328;28;20390;-51
2021/07/04 02:38:52;;;;;;;0.80;0.80;;;24.60;50.20;;;28.24;34.12;100938.72;5095944;28;20115;-51
2021/07/04 02:41:18;;;;;;;0.70;0.70;;;24.60;50.30;;;28.23;34.54;100945.97;5113907;28;20187;-50
2021/07/04 02:43:44;;;;;;;0.70;0.70;;;24.60;50.30;;;28.22;34.16;100944.25;5112076;28;20044;-52
2021/07/04 02:46:14;;;;;;;0.77;0.77;;;24.60;50.30;;;28.22;34.16;100938.88;5114180;28;20070;-49
2021/07/04 02:48:41;;;;;;;0.85;0.85;;;24.60;50.30;;;28.20;34.21;100946.25;5113842;28;20084;-49
2021/07/04 02:51:07;;;;;;;0.88;0.88;;;24.60;50.30;;;28.21;34.32;100955.16;5115118;28;20480;-50
2021/07/04 02:53:33;;;;;;;0.98;0.98;;;24.50;50.30;;;28.17;34.50;100940.31;5113275;28;20069;-54
2021/07/04 02:56:06;;;;;;;0.70;0.70;;;24.60;50.40;;;28.19;34.11;100947.22;5112001;28;20047;-51
2021/07/04 02:58:36;;;;;;;0.70;0.70;;;24.50;50.30;;;28.17;34.42;100943.81;5112917;28;20048;-48
2021/07/04 03:01:02;;;;;;;0.80;0.80;;;24.50;50.30;;;28.15;34.42;100932.38;5113086;28;20101;-51
2021/07/04 03:03:29;;;;;;;0.70;0.70;;;24.50;50.30;;;28.16;34.56;100944.81;5114418;28;20134;-47
2021/07/04 03:05:56;;;;;;;0.80;0.80;;;24.50;50.30;;;28.13;34.21;100931.63;5095728;28;20096;-50
2021/07/04 03:08:22;;;;;;;0.80;0.80;;;24.50;50.40;;;28.15;34.50;100939.56;5113063;28;20047;-49
2021/07/04 03:10:49;;;;;;;0.80;0.80;;;24.50;50.40;;;28.13;34.30;100939.69;5113107;28;20143;-49
2021/07/04 03:13:19;;;;;;;0.80;0.80;;;24.50;50.40;;;28.15;34.32;100948.50;5096029;28;20046;-49
2021/07/04 03:15:46;;;;;;;0.70;0.70;;;24.50;50.40;;;28.13;34.48;100944.25;5114642;28;20130;-52
2021/07/04 03:18:12;;;;;;;0.80;0.80;;;24.50;50.40;;;28.15;34.38;100945.81;5112887;28;20054;-50
2021/07/04 03:20:41;;;;;;;0.80;0.80;;;24.50;50.40;;;28.15;34.30;100948.50;5112844;28;20055;-51
2021/07/04 03:23:11;;;;;;;0.80;0.80;;;24.50;50.40;;;28.16;34.48;100936.75;5095811;28;20051;-47
2021/07/04 03:25:37;;;;;;;0.73;0.73;;;24.60;50.30;;;28.18;34.49;100937.44;5095701;28;20092;-51
2021/07/04 03:28:05;;;;;;;0.80;0.80;;;24.60;50.30;;;28.21;34.12;100941.69;5093598;28;20055;-48
2021/07/04 03:30:34;;;;;;;0.90;0.90;;;24.70;50.20;;;28.24;34.19;100934.19;5114701;28;20516;-53
2021/07/04 03:33:02;;;;;;;0.80;0.80;;;24.70;50.20;;;28.28;34.22;100930.25;5096121;28;20126;-48
2021/07/04 03:35:30;;;;;;;0.75;0.75;;;24.70;50.10;;;28.32;34.08;100935.31;5113962;28;20112;-48
2021/07/04 03:37:59;;;;;;;0.70;0.70;;;24.70;50.00;;;28.34;34.01;100930.66;5113609;28;21070;-52
2021/07/04 03:40:25;;;;;;;0.80;0.80;;;24.80;49.90;;;28.41;34.39;100932.63;5111735;28;20055;-47
2021/07/04 03:43:01;;;;;;;0.70;0.70;;;24.80;49.80;;;28.46;33.90;100937.59;5114148;28;20062;-47
2021/07/04 03:45:35;;;;;;;0.70;0.70;;;24.80;49.70;;;28.48;33.85;100932.06;5112396;28;20081;-49
2021/07/04 03:48:04;;;;;;;0.80;0.80;;;24.90;49.70;;;28.52;34.02;100945.09;5078824;28;20139;-46
2021/07/04 03:50:39;;;;;;;0.68;0.68;;;24.90;50.20;;;28.59;33.97;100940.88;5112503;28;20054;-45
2021/07/04 03:53:06;;;;;;;0.90;0.90;;;24.90;49.50;;;28.59;33.90;100932.78;5095543;28;20433;-49
2021/07/04 03:55:32;;;;;;;0.85;0.85;;;25.00;49.50;;;28.68;33.57;100941.84;5113557;28;20082;-51
2021/07/04 03:57:59;;;;;;;1.05;0.90;;;25.00;49.40;;;28.69;33.47;100932.78;5113396;28;20146;-53
2021/07/04 04:00:31;;;;;;;0.75;0.75;;;25.10;49.30;;;28.78;33.53;100939.13;5095881;28;20054;-52
2021/07/04 04:03:05;;;;;;;0.80;0.80;;;25.10;49.20;;;28.81;33.42;100930.78;5112003;28;20060;-51
2021/07/04 04:05:37;;;;;;;0.85;0.85;;;25.20;49.30;;;28.88;33.16;100934.56;5112481;28;20390;-54
2021/07/04 04:08:06;;;;;;;0.70;0.70;;;25.20;49.10;;;28.90;33.33;100938.00;5111552;28;20112;-48
2021/07/04 04:10:34;;;;;;;0.80;0.80;;;25.20;49.00;;;28.97;33.27;100946.34;5094101;28;20569;-48
2021/07/04 04:13:04;;;;;;;;;;;25.30;49.00;;;29.13;33.05;100943.00;5095537;28;20094;-46
2021/07/04 04:15:34;;;;;;;0.80;0.80;;;25.30;48.90;;;29.15;33.18;100949.09;5095545;28;19946;-50
2021/07/04 04:18:00;;;;;;;0.88;0.88;;;25.40;48.90;;;29.14;32.96;100945.56;5110575;28;20487;-47
2021/07/04 04:20:28;;;;;;;0.80;0.80;;;25.40;48.80;;;29.18;32.98;100940.75;5111905;28;20044;-47
2021/07/04 04:22:55;;;;;;;0.80;0.80;;;25.40;48.80;;;29.22;33.04;100941.28;5112019;28;20051;-48
2021/07/04 04:25:22;;;;;;;1.00;0.85;;;25.50;48.70;;;29.23;33.25;100935.75;5111783;28;20090;-47
2021/07/04 04:27:48;;;;;;;0.80;0.80;;;25.50;48.70;;;29.28;32.77;100941.56;5113066;28;20139;-46
2021/07/04 04:30:18;;;;;;;1.05;0.77;;;25.60;48.70;;;29.32;32.86;100940.28;5095427;28;20047;-48
2021/07/04 04:32:46;;;;;;;0.70;0.70;;;25.60;49.10;;;29.34;32.67;100940.13;5112957;28;20077;-50
2021/07/04 04:35:14;;;;;;;0.70;0.70;;;25.60;48.50;;;29.41;32.79;100943.91;5113157;28;20126;-48
2021/07/04 04:37:41;;;;;;;0.90;0.90;;;25.60;48.50;;;29.44;32.85;100943.63;5113296;28;20043;-48
2021/07/04 04:40:09;;;;;;;0.80;0.80;;;25.60;48.40;;;29.47;32.81;100942.47;5113221;28;20126;-49
2021/07/04 04:42:36;;;;;;;0.70;0.70;;;25.70;48.40;;;29.51;32.46;100946.56;5094631;28;20055;-48
2021/07/04 04:45:03;;;;;;;0.70;0.70;;;25.80;48.40;;;29.55;32.53;100943.44;5113296;28;20047;-48
2021/07/04 04:47:29;;;;;;;0.50;0.50;;;25.80;48.30;;;29.62;32.62;100942.81;5112847;28;20059;-51
2021/07/04 04:49:55;;;;;;;0.80;0.80;;;25.80;48.30;;;29.64;32.55;100936.28;5113077;28;20047;-48
2021/07/04 04:52:20;;;;;;;0.80;0.80;;;25.80;48.20;;;29.66;32.45;100930.75;5093578;28;20044;-51
2021/07/04 04:54:46;;;;;;;0.63;0.63;;;25.90;48.10;;;29.72;32.27;100932.81;5112426;28;20054;-46
2021/07/04 04:57:12;;;;;;;0.90;0.90;;;26.00;48.10;;;29.77;32.20;100935.06;5112814;28;20055;-49
2021/07/04 04:59:38;;;;;;;0.73;0.73;;;26.00;48.00;;;29.80;32.16;100932.94;5112488;28;20100;-51
2021/07/04 05:02:05;;;;;;;0.80;0.80;;;26.00;47.90;;;29.85;32.19;100930.63;5111676;28;20384;-53
2021/07/04 05:04:31;;;;;;;0.68;0.68;;;26.10;47.90;;;29.92;32.02;100934.44;5094665;28;20492;-49
2021/07/04 05:06:57;;;;;;;0.70;0.70;;;26.10;47.80;;;29.91;31.98;100929.19;5112690;28;20035;-51
2021/07/04 05:09:24;;;;;;;0.70;0.70;;;26.10;47.70;;;29.99;32.11;100929.28;5112939;28;20395;-48
2021/07/04 05:11:50;;;;;;;0.70;0.70;;;26.20;47.70;;;30.03;32.03;100933.34;5111167;28;20043;-45
2021/07/04 05:14:17;;;;;;;1.00;0.77;;;26.20;47.60;;;30.08;31.93;100928.34;5112615;28;20081;-48
2021/07/04 05:16:44;;;;;;;0.90;0.90;;;26.20;48.10;;;30.09;31.86;100924.66;5112580;28;20127;-48
2021/07/04 05:19:14;;;;;;;0.75;0.75;;;26.30;47.50;;;30.14;31.88;100923.34;5112457;28;20051;-45
2021/07/04 05:21:40;;;;;;;0.70;0.70;;;26.30;47.50;;;30.19;31.60;100929.09;5113853;28;20052;-50
2021/07/04 05:24:09;;;;;;;0.70;0.70;;;26.30;47.50;;;30.20;31.90;100912.78;5116482;28;20040;-51
2021/07/04 05:26:35;;;;;;;0.70;0.70;;;26.40;47.40;;;30.26;31.66;100916.72;5115989;28;20081;-48
2021/07/04 05:29:01;;;;;;;0.70;0.70;;;26.40;47.30;;;30.30;31.61;100923.47;5115927;28;20086;-50
2021/07/04 05:31:27;;;;;;;0.60;0.60;;;26.40;47.20;;;30.33;31.46;100925.03;5115968;28;20048;-45
2021/07/04 05:33:53;;;;;;;0.57;0.57;;;26.50;47.30;;;30.34;31.54;100924.88;5115813;28;20563;-47
2021/07/04 05:36:19;;;;;;;0.80;0.80;;;26.50;47.20;;;30.36;31.62;100919.34;5115949;28;20138;-53
2021/07/04 05:38:45;;;;;;;0.60;0.60;;;26.50;47.10;;;30.39;31.55;100919.03;5116222;28;20059;-51
2021/07/04 05:41:12;;;;;;;0.70;0.70;;;26.50;47.10;;;30.39;31.42;100917.19;5116118;28;20051;-45
2021/07/04 05:43:48;;;;;;;0.55;0.55;;;26.50;47.10;;;30.43;31.40;100921.25;5115702;28;20169;-51
2021/07/04 05:46:14;;;;;;;0.68;0.68;;;26.60;47.10;;;30.47;31.35;100927.19;5116083;28;20555;-51
2021/07/04 05:48:43;;;;;;;0.70;0.70;;;26.60;47.00;;;30.48;31.36;100918.09;5115781;28;20056;-48
2021/07/04 05:51:11;;;;;;;0.80;0.80;;;26.60;47.00;;;30.50;31.23;100918.78;5115898;28;20043;-47
2021/07/04 05:53:37;;;;;;;0.65;0.65;;;26.70;47.00;;;30.52;31.33;100919.47;5115555;28;20505;-51
2021/07/04 05:56:03;;;;;;;0.60;0.60;;;26.70;46.90;;;30.54;31.14;100920.19;5115612;28;20165;-45
2021/07/04 05:58:29;;;;;;;0.70;0.70;;;26.80;46.90;;;30.61;31.20;100918.53;5115793;28;20043;-51
2021/07/04 06:00:55;;;;;;;0.75;0.75;;;26.80;46.80;;;30.63;31.15;100910.28;5114663;28;20138;-49
2021/07/04 06:03:21;;;;;;;0.82;0.82;;;26.80;46.70;;;30.66;31.23;100912.69;5115447;28;20063;-47
2021/07/04 06:05:46;;;;;;;0.80;0.80;;;26.90;46.70;;;30.71;31.10;100909.50;5115469;28;20047;-49
2021/07/04 06:08:12;;;;;;;0.80;0.80;;;26.90;46.60;;;30.72;30.93;100900.38;5114064;28;20150;-51
2021/07/04 06:10:38;;;;;;;0.60;0.60;;;26.90;46.50;;;30.73;30.94;100899.41;5115634;28;20059;-52
2021/07/04 06:13:04;;;;;;;0.80;0.80;;;27.00;46.50;;;30.81;31.02;100905.69;5114930;28;20036;-51
2021/07/04 06:15:30;;;;;;;0.80;0.80;;;27.00;46.40;;;30.86;30.89;100913.31;5115353;28;20035;-48
2021/07/04 06:17:56;;;;;;;0.68;0.68;;;27.10;46.30;;;30.90;30.91;100906.56;5115494;28;20062;-51
2021/07/04 06:20:23;;;;;;;0.60;0.60;;;27.10;46.20;;;30.90;30.83;100898.47;5115479;28;20047;-50
2021/07/04 06:22:50;;;;;;;0.75;0.75;;;27.20;46.20;;;30.98;30.80;100906.66;5115106;28;20415;-51
2021/07/04 06:25:17;;;;;;;0.88;0.70;;;27.20;46.10;;;31.01;30.84;100905.50;5115070;28;20066;-54
2021/07/04 06:27:43;;;;;;;0.68;0.68;;;27.30;46.00;;;31.08;30.66;100908.41;5114535;28;20138;-47
2021/07/04 06:30:11;;;;;;;0.50;0.50;;;27.30;45.90;;;31.12;30.59;100913.31;5114912;28;20079;-47
2021/07/04 06:32:40;;;;;;;0.70;0.70;;;27.30;45.80;;;31.15;30.42;100909.44;5114164;28;20043;-48
2021/07/04 06:35:09;;;;;;;0.70;0.70;;;27.40;45.80;;;31.21;30.55;100911.50;5115435;28;20043;-48
2021/07/04 06:37:36;;;;;;;0.65;0.65;;;27.40;45.70;;;31.24;30.40;100900.38;5115293;28;20100;-49
2021/07/04 06:40:05;;;;;;;0.70;0.70;;;27.50;45.70;;;31.29;30.45;100905.28;5114807;28;20123;-51
2021/07/04 06:42:31;;;;;;;0.70;0.70;;;27.50;45.60;;;31.32;30.03;100900.38;5114872;28;20043;-52
2021/07/04 06:44:57;;;;;;;0.80;0.80;;;27.60;45.50;;;31.35;30.35;100900.06;5095396;28;20589;-51
2021/07/04 06:47:22;;;;;;;0.60;0.60;;;27.60;45.50;;;31.40;30.22;100899.59;5114750;28;20109;-52
2021/07/04 06:49:48;;;;;;;0.68;0.68;;;27.70;45.40;;;31.46;30.10;100900.78;5114816;28;20047;-47
2021/07/04 06:52:14;;;;;;;0.70;0.70;;;27.70;45.30;;;31.50;30.06;100904.84;5114468;28;20047;-48
2021/07/04 06:54:40;;;;;;;0.85;0.80;;;27.80;45.30;;;31.53;30.20;100900.00;5114500;28;20479;-50
2021/07/04 06:59:50;;;;;;;0.80;0.80;;;27.80;45.10;;;31.68;30.12;100904.78;5114845;28;20498;-49
2021/07/04 07:02:16;;;;;;;0.80;0.80;;;27.90;45.00;;;31.73;29.83;100905.97;5114265;28;20051;-53
2021/07/04 07:04:41;;;;;;;0.70;0.70;;;27.90;44.90;;;31.77;29.74;100901.91;5114402;28;20117;-51
2021/07/04 07:07:07;;;;;;;0.60;0.60;;;28.00;44.80;;;31.85;29.79;100900.25;5114548;28;20079;-51
2021/07/04 07:09:33;;;;;;;0.70;0.70;;;28.00;44.70;;;31.88;29.54;100892.66;5114390;28;20066;-52
2021/07/04 07:11:59;;;;;;;0.65;0.65;;;28.10;44.60;;;31.95;29.51;100893.66;5114932;28;20134;-48
2021/07/04 07:14:25;;;;;;;0.68;0.68;;;28.10;44.60;;;31.99;29.37;100891.47;5114280;28;20040;-53
2021/07/04 07:16:52;;;;;;;0.80;0.80;;;28.20;44.50;;;32.02;29.27;100884.88;5114117;28;20131;-52
2021/07/04 07:19:18;;;;;;;0.90;0.90;;;28.20;44.40;;;32.03;29.38;100886.59;5113888;28;20047;-50
2021/07/04 07:21:43;;;;;;;0.73;0.73;;;28.30;44.40;;;32.13;29.37;100893.53;5114459;28;20399;-50
2021/07/04 07:24:10;;;;;;;0.80;0.80;;;28.30;44.20;;;32.17;29.40;100891.34;5114097;28;20071;-53
2021/07/04 07:26:44;;;;;;;0.70;0.70;;;28.30;44.20;;;32.21;28.95;100890.00;5080338;28;20537;-49
2021/07/04 07:29:09;;;;;;;0.85;0.85;;;28.40;44.10;;;32.21;29.29;100875.59;5113999;28;20047;-48
2021/07/04 07:31:38;;;;;;;0.80;0.80;;;28.40;44.10;;;32.29;29.02;100886.44;5114369;28;20472;-50
2021/07/04 07:34:05;;;;;;;0.63;0.63;;;28.50;44.00;;;32.31;28.84;100885.25;5113996;28;20439;-48
2021/07/04 07:36:32;;;;;;;0.90;0.90;;;28.50;44.00;;;32.34;29.16;100883.22;5096041;28;20467;-49
2021/07/04 07:38:58;;;;;;;0.68;0.68;;;28.50;43.90;;;32.39;28.98;100884.38;5113810;28;20131;-51
2021/07/04 07:41:25;;;;;;;0.70;0.70;;;28.60;43.90;;;32.41;29.03;100878.81;5112416;28;20044;-51
2021/07/04 07:43:50;;;;;;;0.70;0.70;;;28.60;43.80;;;32.48;28.76;100890.66;5113713;28;20543;-50
2021/07/04 07:46:17;;;;;;;0.70;0.70;;;28.70;43.70;;;32.48;28.63;100883.38;5114016;28;20044;-48
2021/07/04 07:48:43;;;;;;;0.65;0.65;;;28.70;43.70;;;32.50;28.54;100873.22;5113785;28;20055;-51
2021/07/04 07:51:17;;;;;;;0.90;0.90;;;28.70;43.60;;;32.54;28.63;100881.84;5095788;28;20075;-51
2021/07/04 07:53:43;;;;;;;0.73;0.73;;;28.70;43.50;;;32.55;28.72;100886.25;5113628;28;20094;-50
2021/07/04 07:56:09;;;;;;;0.70;0.70;;;28.80;43.50;;;32.57;28.49;100886.91;5113663;28;20059;-51
2021/07/04 07:58:47;;;;;;;0.70;0.70;;;28.70;43.40;;;32.55;28.79;100878.13;5077876;28;20545;-49
2021/07/04 08:01:15;;;;;;;0.55;0.55;;;28.80;43.50;;;32.58;28.53;100885.91;5113586;28;20047;-53
2021/07/04 08:03:41;;;;;;;0.70;0.70;;;28.80;43.30;;;32.57;28.35;100884.19;5113462;28;20131;-51
2021/07/04 08:06:07;;;;;;;0.60;0.60;;;28.80;43.30;;;32.60;28.68;100893.84;5095199;28;20089;-53
2021/07/04 08:08:33;;;;;;;0.60;0.60;;;28.80;43.20;;;32.62;28.57;100881.03;5113390;28;20060;-53
2021/07/04 08:10:59;;;;;;;0.95;0.90;;;28.90;43.20;;;32.64;28.57;100885.22;5113331;28;20047;-51
2021/07/04 08:13:25;;;;;;;0.80;0.80;;;28.90;43.20;;;32.62;28.54;100879.16;5113057;28;20134;-52
2021/07/04 08:15:54;;;;;;;0.98;0.98;;;28.90;43.20;;;32.60;28.18;100875.75;5113684;28;20067;-48
2021/07/04 08:18:21;;;;;;;0.82;0.80;;;28.90;43.20;;;32.59;28.57;100874.03;5113339;28;20040;-48
2021/07/04 08:20:47;;;;;;;0.70;0.70;;;28.90;43.10;;;32.60;28.32;100874.91;5113329;28;20059;-47
2021/07/04 08:23:13;;;;;;;0.57;0.57;;;28.90;43.10;;;32.61;28.58;100885.59;5113305;28;20047;-52
2021/07/04 08:25:39;;;;;;;0.90;0.90;;;28.90;43.10;;;32.60;28.23;100881.16;5113333;28;20050;-47
2021/07/04 08:28:04;;;;;;;0.90;0.90;;;28.90;43.10;;;32.65;28.47;100886.09;5113152;28;20054;-48
2021/07/04 08:30:30;;;;;;;0.70;0.70;;;28.90;43.00;;;32.62;28.45;100879.16;5094470;28;20044;-50
2021/07/04 08:32:56;;;;;;;0.70;0.70;;;29.00;43.10;;;32.66;28.19;100882.34;5113599;28;20048;-50
2021/07/04 08:35:22;;;;;;;0.65;0.65;;;29.00;43.00;;;32.66;28.44;100876.94;5113137;28;20054;-51
2021/07/04 08:37:48;;;;;;;0.70;0.70;;;29.00;43.00;;;32.65;28.60;100869.84;5113026;28;20078;-45
2021/07/04 08:40:15;;;;;;;0.70;0.70;;;29.00;42.90;;;32.71;28.04;100873.72;5113055;28;20389;-51
2021/07/04 08:42:42;;;;;;;0.68;0.68;;;29.00;42.80;;;32.74;28.44;100867.97;5113051;28;20043;-48
2021/07/04 08:45:10;;;;;;;0.70;0.70;;;29.10;42.80;;;32.75;28.15;100854.25;5113025;28;20054;-53
2021/07/04 08:47:38;;;;;;;0.80;0.80;;;29.10;42.80;;;32.78;28.33;100855.75;5113038;28;20043;-49
2021/07/04 08:50:06;;;;;;;0.80;0.80;;;29.10;42.70;;;32.79;28.38;100844.75;5112912;28;20055;-46
2021/07/04 08:52:33;;;;;;;0.68;0.68;;;29.20;42.70;;;32.80;28.24;100835.63;5112958;28;20074;-49
2021/07/04 08:55:02;;;;;;;0.73;0.73;;;29.20;42.70;;;32.86;27.88;100851.19;5092745;28;20044;-50
2021/07/04 08:57:27;;;;;;;0.73;0.73;;;29.20;42.60;;;32.85;27.91;100835.94;5115268;28;20047;-49
2021/07/04 08:59:53;;;;;;;0.70;0.70;;;29.20;42.60;;;32.87;28.00;100838.47;5116825;28;20043;-51
2021/07/04 09:02:37;;;;;;;0.93;0.93;;;29.20;42.60;;;32.83;28.44;100842.56;5116253;28;20055;-55
2021/07/04 09:05:11;;;;;;;0.70;0.70;;;29.20;42.60;;;32.84;27.87;100836.13;5098574;28;20047;-50
2021/07/04 09:07:39;;;;;;;0.60;0.60;;;29.20;42.60;;;32.86;27.87;100842.19;5116799;28;20047;-48
2021/07/04 09:10:09;;;;;;;0.90;0.90;;;29.20;42.60;;;32.85;28.03;100837.81;5116338;28;20118;-54
2021/07/04 09:12:47;;;;;;;0.80;0.80;;;29.20;42.60;;;32.85;28.44;100837.81;5116204;28;20043;-49
2021/07/04 09:15:23;;;;;;;0.70;0.70;;;29.20;42.60;;;32.85;27.94;100843.22;5116577;28;20035;-49
2021/07/04 09:17:52;;;;;;;0.63;0.60;;;29.20;42.60;;;32.87;28.35;100844.72;5116287;28;20046;-53
2021/07/04 09:20:34;;;;;;;0.77;0.77;;;29.20;42.50;;;32.85;27.96;100844.06;5116508;28;20118;-51
2021/07/04 09:23:02;;;;;;;0.80;0.80;;;29.20;42.50;;;32.91;27.87;100839.78;5116638;28;20475;-52
2021/07/04 09:25:31;;;;;;;0.60;0.60;;;29.30;42.50;;;32.93;27.99;100840.50;5115939;28;20055;-46
2021/07/04 09:28:11;;;;;;;0.77;0.77;;;29.30;42.50;;;32.95;27.82;100833.03;5116526;28;20039;-49
2021/07/04 09:30:43;;;;;;;0.70;0.70;;;29.30;42.50;;;32.96;28.17;100840.16;5116283;28;20364;-51
2021/07/04 09:33:19;;;;;;;0.80;0.80;;;29.30;42.40;;;32.97;28.18;100832.84;5115932;28;20517;-47
2021/07/04 09:36:07;;;;;;;0.85;0.85;;;29.30;42.40;;;32.97;27.81;100827.44;5116493;28;20383;-49
2021/07/04 09:38:35;;;;;;;0.70;0.70;;;29.30;42.40;;;32.99;27.88;100830.81;5115869;28;20492;-49
2021/07/04 09:41:03;;;;;;;0.82;0.70;;;29.30;42.30;;;32.96;27.72;100823.91;5097530;28;20048;-46
2021/07/04 09:43:31;;;;;;;0.85;0.85;;;29.30;42.30;;;33.00;27.81;100822.50;5115951;28;20047;-47
2021/07/04 09:45:59;;;;;;;0.80;0.80;;;29.40;42.40;;;33.02;27.94;100833.16;5115654;28;20043;-48
2021/07/04 09:48:30;;;;;;;0.85;0.85;;;29.30;42.30;;;33.02;28.17;100823.16;5096334;28;20062;-47
2021/07/04 09:51:02;;;;;;;0.70;0.70;;;29.30;42.20;;;33.04;27.90;100823.00;5116032;28;20065;-50
2021/07/04 09:53:48;;;;;;;0.60;0.60;;;29.30;42.20;;;33.02;28.08;100814.22;5115616;28;20048;-46
2021/07/04 09:56:23;;;;;;;0.80;0.80;;;29.40;42.30;;;33.02;27.44;100811.50;5115842;28;20498;-47
2021/07/04 09:58:54;;;;;;;0.80;0.80;;;29.40;42.30;;;33.03;27.52;100815.91;5115193;28;20058;-50
2021/07/04 10:01:35;;;;;;;0.70;0.70;;;29.40;42.20;;;33.07;28.00;100819.09;5115614;28;20043;-54
2021/07/04 10:04:04;;;;;;;0.88;0.88;;;29.40;42.30;;;33.05;27.99;100817.41;5115740;28;20052;-54
2021/07/04 10:06:52;;;;;;;0.70;0.70;;;29.40;42.20;;;33.04;28.03;100815.69;5115693;28;20555;-48
2021/07/04 10:09:19;;;;;;;0.70;0.70;;;29.40;42.20;;;33.04;27.33;100810.28;5114212;28;20055;-52
2021/07/04 10:11:47;;;;;;;0.77;0.77;;;29.40;42.20;;;33.04;27.83;100813.00;5115285;28;20048;-51
2021/07/04 10:14:14;;;;;;;0.60;0.60;;;29.40;42.20;;;33.04;27.48;100810.28;5115204;28;20047;-49
2021/07/04 10:16:45;;;;;;;0.65;0.65;;;29.40;42.20;;;33.05;27.63;100817.41;5115235;28;20071;-49
2021/07/04 10:19:19;;;;;;;0.68;0.68;;;29.40;42.20;;;33.02;27.89;100811.50;5115252;28;20051;-45
2021/07/04 10:21:52;;;;;;;0.73;0.73;;;29.40;42.30;;;33.05;27.69;100803.84;5097271;28;20040;-50